createdAt,value
2023-05-03T00:00:52.227Z,864.2500
2023-05-03T00:01:56.872Z,1002.0833
2023-05-03T00:03:01.456Z,901.9167
2023-05-03T00:04:06.072Z,638.1667
2023-05-03T00:05:10.706Z,633.6667
2023-05-03T00:06:15.389Z,681.9167
2023-05-03T00:07:19.986Z,827.7500
2023-05-03T00:08:24.586Z,964.1667
2023-05-03T00:09:29.240Z,953.1667
2023-05-03T00:10:33.881Z,648.1667
2023-05-03T00:11:38.491Z,602.5000
2023-05-03T00:12:43.105Z,651.7500
2023-05-03T00:13:47.696Z,730.0000
2023-05-03T00:14:52.296Z,891.7500
2023-05-03T00:15:56.889Z,970.2500
2023-05-03T00:17:01.664Z,706.0833
2023-05-03T00:18:06.308Z,668.5000
2023-05-03T00:19:24.232Z,740.0833
2023-05-03T00:20:16.182Z,892.4545
2023-05-03T00:21:20.807Z,1004.7500
2023-05-03T00:22:25.438Z,1014.7500
2023-05-03T00:23:30.092Z,682.5000
2023-05-03T00:24:34.713Z,620.6667
2023-05-03T00:25:35.805Z,666.2727
2023-05-03T00:26:40.433Z,762.3333
2023-05-03T00:27:45.419Z,912.1667
2023-05-03T00:28:50.036Z,1002.8333
2023-05-03T00:29:54.913Z,733.2500
2023-05-03T00:30:59.529Z,616.2500
2023-05-03T00:32:04.164Z,654.2500
2023-05-03T00:33:08.803Z,729.0833
2023-05-03T00:34:13.497Z,892.0000
2023-05-03T00:35:18.118Z,1006.0000
2023-05-03T00:36:22.749Z,771.3333
2023-05-03T00:37:27.352Z,643.5000
2023-05-03T00:38:31.985Z,676.3333
2023-05-03T00:39:36.611Z,800.0833
2023-05-03T00:40:41.248Z,948.8333
2023-05-03T00:41:45.888Z,1032.9166
2023-05-03T00:42:50.471Z,774.0833
2023-05-03T00:43:55.084Z,635.9167
2023-05-03T00:44:59.701Z,667.3333
2023-05-03T00:46:15.171Z,756.4167
2023-05-03T00:47:09.492Z,932.1818
2023-05-03T00:48:14.384Z,1017.2500
2023-05-03T00:49:19.026Z,791.9167
2023-05-03T00:50:23.651Z,643.1667
2023-05-03T00:51:28.283Z,671.7500
2023-05-03T00:52:32.897Z,779.6667
2023-05-03T00:53:37.528Z,923.5833
2023-05-03T00:54:42.183Z,1041.9166
2023-05-03T00:55:46.769Z,781.2500
2023-05-03T00:56:52.526Z,637.2500
2023-05-03T00:57:52.454Z,665.6364
2023-05-03T00:58:57.048Z,754.8333
2023-05-03T01:00:02.024Z,915.8333
2023-05-03T01:01:06.729Z,1034.2500
2023-05-03T01:02:11.323Z,824.5000
2023-05-03T01:03:16.064Z,641.3333
2023-05-03T01:04:20.707Z,664.8333
2023-05-03T01:05:25.308Z,762.5833
2023-05-03T01:06:29.944Z,909.9167
2023-05-03T01:07:34.543Z,1031.0000
2023-05-03T01:08:39.162Z,840.8333
2023-05-03T01:09:43.774Z,664.8333
2023-05-03T01:10:48.409Z,704.3333
2023-05-03T01:11:53.027Z,829.9167
2023-05-03T01:12:57.712Z,965.6667
2023-05-03T01:14:02.338Z,1064.9166
2023-05-03T01:15:06.954Z,801.6667
2023-05-03T01:16:11.609Z,657.1667
2023-05-03T01:17:16.274Z,693.5833
2023-05-03T01:18:20.903Z,839.8333
2023-05-03T01:19:25.509Z,966.9167
2023-05-03T01:20:30.110Z,1064.0000
2023-05-03T01:21:34.719Z,775.8333
2023-05-03T01:22:39.331Z,616.4167
2023-05-03T01:23:43.937Z,646.9167
2023-05-03T01:24:48.547Z,719.0000
2023-05-03T01:25:53.197Z,878.4167
2023-05-03T01:26:57.820Z,996.0000
2023-05-03T01:28:02.456Z,826.0833
2023-05-03T01:29:07.068Z,633.2500
2023-05-03T01:30:11.673Z,659.2500
2023-05-03T01:31:16.338Z,743.2500
2023-05-03T01:32:20.982Z,891.8333
2023-05-03T01:33:25.596Z,1016.3333
2023-05-03T01:34:30.200Z,854.7500
2023-05-03T01:35:34.819Z,642.5833
2023-05-03T01:36:39.431Z,664.4167
2023-05-03T01:37:44.277Z,761.4167
2023-05-03T01:38:48.906Z,911.6667
2023-05-03T01:39:53.528Z,1037.5000
2023-05-03T01:40:58.152Z,876.5000
2023-05-03T01:42:02.781Z,626.4167
2023-05-03T01:43:07.375Z,628.3333
2023-05-03T01:44:11.980Z,684.4167
2023-05-03T01:45:16.855Z,825.1667
2023-05-03T01:46:21.582Z,972.4167
2023-05-03T01:47:26.202Z,921.6667
2023-05-03T01:48:30.809Z,639.5000
2023-05-03T01:49:35.428Z,615.9167
2023-05-03T01:50:40.060Z,667.0000
2023-05-03T01:51:44.680Z,769.5833
2023-05-03T01:52:49.287Z,924.3333
2023-05-03T01:53:53.887Z,975.2500
2023-05-03T01:54:58.522Z,692.0000
2023-05-03T01:56:03.143Z,648.5833
2023-05-03T01:57:07.784Z,718.5833
2023-05-03T01:58:12.511Z,863.0000
2023-05-03T01:59:17.135Z,1000.0000
2023-05-03T02:00:21.755Z,1002.4167
2023-05-03T02:01:26.415Z,685.8333
2023-05-03T02:02:31.005Z,635.1667
2023-05-03T02:03:35.606Z,688.9167
2023-05-03T02:04:40.254Z,812.3333
2023-05-03T02:05:44.883Z,977.0000
2023-05-03T02:06:49.586Z,1031.5834
2023-05-03T02:07:54.278Z,702.0000
2023-05-03T02:08:58.856Z,627.5833
2023-05-03T02:10:03.627Z,670.5833
2023-05-03T02:11:05.314Z,785.3000
2023-05-03T02:12:09.904Z,929.5000
2023-05-03T02:13:14.533Z,1027.5834
2023-05-03T02:14:19.158Z,759.5000
2023-05-03T02:15:23.796Z,666.1667
2023-05-03T02:16:28.452Z,738.2500
2023-05-03T02:17:33.085Z,887.5000
2023-05-03T02:18:37.680Z,1023.3333
2023-05-03T02:19:42.294Z,1042.4166
2023-05-03T02:20:46.923Z,722.3333
2023-05-03T02:21:51.554Z,643.0833
2023-05-03T02:22:56.166Z,688.0833
2023-05-03T02:24:00.816Z,840.1667
2023-05-03T02:25:05.405Z,983.6667
2023-05-03T02:26:09.991Z,1041.8334
2023-05-03T02:27:14.618Z,726.4167
2023-05-03T02:28:19.235Z,610.0000
2023-05-03T02:29:23.860Z,645.9167
2023-05-03T02:30:28.469Z,731.1667
2023-05-03T02:31:33.153Z,891.2500
2023-05-03T02:32:37.832Z,1004.9167
2023-05-03T02:33:42.430Z,807.1667
2023-05-03T02:34:47.035Z,648.4167
2023-05-03T02:35:51.641Z,681.3333
2023-05-03T02:36:56.247Z,810.0833
2023-05-03T02:38:00.861Z,953.1667
2023-05-03T02:39:05.457Z,1047.2500
2023-05-03T02:40:10.310Z,807.7500
2023-05-03T02:41:14.911Z,670.1667
2023-05-03T02:42:19.516Z,722.0833
2023-05-03T02:43:24.162Z,882.0000
2023-05-03T02:44:28.765Z,1008.1667
2023-05-03T02:45:33.397Z,1074.5834
2023-05-03T02:46:38.079Z,765.6667
2023-05-03T02:47:42.714Z,609.7500
2023-05-03T02:48:47.323Z,642.5833
2023-05-03T02:49:51.941Z,705.8333
2023-05-03T02:50:56.555Z,874.0000
2023-05-03T02:52:01.162Z,1006.4167
2023-05-03T02:53:05.777Z,831.5000
2023-05-03T02:54:10.380Z,634.4167
2023-05-03T02:55:14.989Z,653.0833
2023-05-03T02:56:19.592Z,733.3333
2023-05-03T02:57:24.227Z,886.9167
2023-05-03T02:58:28.870Z,1018.6667
2023-05-03T02:59:33.494Z,882.9167
2023-05-03T03:00:38.091Z,631.4167
2023-05-03T03:01:42.746Z,633.9167
2023-05-03T03:02:47.457Z,689.0833
2023-05-03T03:03:52.148Z,831.4167
2023-05-03T03:04:56.852Z,980.1667
2023-05-03T03:06:01.497Z,945.4167
2023-05-03T03:07:06.111Z,658.9167
2023-05-03T03:08:10.729Z,656.2500
2023-05-03T03:09:15.336Z,727.9167
2023-05-03T03:10:19.954Z,888.6667
2023-05-03T03:11:24.559Z,1012.6667
2023-05-03T03:12:29.192Z,970.8333
2023-05-03T03:13:33.799Z,671.2500
2023-05-03T03:14:38.467Z,664.7500
2023-05-03T03:15:43.133Z,748.2500
2023-05-03T03:16:47.770Z,902.5833
2023-05-03T03:17:52.433Z,1035.6666
2023-05-03T03:18:57.067Z,971.1667
2023-05-03T03:20:01.754Z,657.9167
2023-05-03T03:21:06.476Z,643.3333
2023-05-03T03:22:11.085Z,706.5000
2023-05-03T03:23:15.689Z,871.1667
2023-05-03T03:24:20.288Z,993.5833
2023-05-03T03:25:24.917Z,985.5833
2023-05-03T03:26:29.536Z,661.6667
2023-05-03T03:27:34.179Z,629.2500
2023-05-03T03:28:38.821Z,678.5000
2023-05-03T03:29:43.456Z,797.1667
2023-05-03T03:30:48.062Z,947.0833
2023-05-03T03:31:52.691Z,999.0000
2023-05-03T03:32:57.378Z,704.5000
2023-05-03T03:34:01.974Z,648.8333
2023-05-03T03:35:06.630Z,703.0000
2023-05-03T03:36:11.256Z,844.0000
2023-05-03T03:37:15.868Z,990.3333
2023-05-03T03:38:20.465Z,1022.7500
2023-05-03T03:39:25.082Z,712.6667
2023-05-03T03:40:29.697Z,661.5000
2023-05-03T03:41:34.288Z,735.8333
2023-05-03T03:42:38.894Z,891.5000
2023-05-03T03:43:43.514Z,1028.1666
2023-05-03T03:44:48.129Z,1037.8334
2023-05-03T03:45:52.773Z,709.3333
2023-05-03T03:46:57.417Z,668.1667
2023-05-03T03:48:02.065Z,768.2500
2023-05-03T03:49:06.682Z,920.7500
2023-05-03T03:50:11.325Z,1046.7500
2023-05-03T03:51:15.953Z,1019.6667
2023-05-03T03:52:20.596Z,681.8333
2023-05-03T03:53:25.207Z,642.6667
2023-05-03T03:54:29.849Z,699.6667
2023-05-03T03:55:34.481Z,858.9167
2023-05-03T03:56:39.098Z,993.4167
2023-05-03T03:57:43.717Z,1017.5000
2023-05-03T03:58:48.337Z,711.2500
2023-05-03T03:59:52.942Z,683.6667
2023-05-03T04:00:57.553Z,799.6667
2023-05-03T04:02:02.229Z,950.8333
2023-05-03T04:03:08.022Z,1071.9166
2023-05-03T04:04:07.505Z,1032.3636
2023-05-03T04:05:12.124Z,681.0833
2023-05-03T04:06:16.801Z,612.1667
2023-05-03T04:07:21.385Z,661.5000
2023-05-03T04:08:25.985Z,754.7500
2023-05-03T04:09:30.601Z,922.4167
2023-05-03T04:10:35.211Z,1026.5000
2023-05-03T04:11:39.817Z,739.1667
2023-05-03T04:12:40.675Z,616.1818
2023-05-03T04:13:45.286Z,651.5833
2023-05-03T04:14:49.885Z,727.6667
2023-05-03T04:15:54.506Z,891.5833
2023-05-03T04:16:59.161Z,1019.0000
2023-05-03T04:18:03.801Z,834.1667
2023-05-03T04:19:08.433Z,658.2500
2023-05-03T04:20:13.073Z,691.6667
2023-05-03T04:21:17.720Z,837.8333
2023-05-03T04:22:22.335Z,970.8333
2023-05-03T04:23:26.961Z,1066.5834
2023-05-03T04:24:31.575Z,832.0833
2023-05-03T04:25:36.168Z,632.0000
2023-05-03T04:26:40.766Z,656.6667
2023-05-03T04:27:45.395Z,733.5000
2023-05-03T04:28:49.991Z,903.4167
2023-05-03T04:29:54.633Z,1028.8334
2023-05-03T04:30:59.268Z,879.5000
2023-05-03T04:32:03.893Z,667.3333
2023-05-03T04:33:08.540Z,707.5000
2023-05-03T04:34:13.197Z,849.5833
2023-05-03T04:35:17.794Z,1006.2500
2023-05-03T04:36:22.415Z,1094.5000
2023-05-03T04:37:27.025Z,838.5833
2023-05-03T04:38:31.638Z,634.0833
2023-05-03T04:39:36.260Z,656.5833
2023-05-03T04:40:40.874Z,741.3333
2023-05-03T04:41:45.487Z,896.6667
2023-05-03T04:42:50.080Z,1028.6666
2023-05-03T04:43:54.700Z,879.0000
2023-05-03T04:44:59.657Z,654.5833
2023-05-03T04:46:04.293Z,677.5000
2023-05-03T04:47:08.957Z,803.0833
2023-05-03T04:48:13.812Z,957.6667
2023-05-03T04:49:18.474Z,1053.9166
2023-05-03T04:50:23.078Z,871.8333
2023-05-03T04:51:27.703Z,646.0833
2023-05-03T04:52:32.342Z,667.6667
2023-05-03T04:53:36.950Z,763.0833
2023-05-03T04:54:41.565Z,912.7500
2023-05-03T04:55:46.169Z,1044.5834
2023-05-03T04:56:50.795Z,886.7500
2023-05-03T04:57:55.406Z,639.8333
2023-05-03T04:59:00.039Z,642.8333
2023-05-03T05:00:04.801Z,705.1667
2023-05-03T05:01:09.732Z,872.6667
2023-05-03T05:02:14.728Z,1012.7500
2023-05-03T05:03:19.490Z,937.8333
2023-05-03T05:04:24.137Z,648.8333
2023-05-03T05:05:28.779Z,632.5833
2023-05-03T05:06:33.461Z,689.7500
2023-05-03T05:07:38.095Z,839.0833
2023-05-03T05:08:42.726Z,984.6667
2023-05-03T05:09:47.374Z,974.1667
2023-05-03T05:10:52.054Z,665.0000
2023-05-03T05:11:57.399Z,611.1667
2023-05-03T05:12:56.730Z,659.1818
2023-05-03T05:14:01.403Z,748.3333
2023-05-03T05:15:06.041Z,918.4167
2023-05-03T05:16:10.705Z,1014.7500
2023-05-03T05:17:15.384Z,750.0833
2023-05-03T05:18:20.188Z,646.1667
2023-05-03T05:19:24.854Z,687.0000
2023-05-03T05:20:29.469Z,811.5000
2023-05-03T05:21:34.121Z,972.9167
2023-05-03T05:22:38.782Z,1053.6666
2023-05-03T05:23:43.415Z,762.6667
2023-05-03T05:24:48.068Z,622.1667
2023-05-03T05:25:52.713Z,652.3333
2023-05-03T05:26:57.369Z,729.7500
2023-05-03T05:28:02.026Z,899.6667
2023-05-03T05:29:06.684Z,1029.6666
2023-05-03T05:30:11.364Z,835.0833
2023-05-03T05:31:15.997Z,630.0000
2023-05-03T05:32:20.857Z,647.8333
2023-05-03T05:33:25.539Z,713.1667
2023-05-03T05:34:36.336Z,883.2500
2023-05-03T05:35:35.362Z,1015.1818
2023-05-03T05:36:40.051Z,870.8333
2023-05-03T05:37:44.658Z,683.2500
2023-05-03T05:38:49.317Z,748.0833
2023-05-03T05:39:53.982Z,901.7500
2023-05-03T05:40:58.630Z,1024.0834
2023-05-03T05:42:03.291Z,1111.1666
2023-05-03T05:43:07.948Z,826.1667
2023-05-03T05:44:12.604Z,646.1667
2023-05-03T05:45:17.258Z,674.3333
2023-05-03T05:46:21.947Z,786.0833
2023-05-03T05:47:26.749Z,949.6667
2023-05-03T05:48:31.384Z,1061.6666
2023-05-03T05:49:36.028Z,830.1667
2023-05-03T05:50:40.686Z,662.4167
2023-05-03T05:51:45.329Z,698.5000
2023-05-03T05:52:49.992Z,836.1667
2023-05-03T05:53:54.650Z,991.2500
2023-05-03T05:54:59.548Z,1077.1666
2023-05-03T05:56:04.202Z,810.1667
2023-05-03T05:57:08.843Z,621.2500
2023-05-03T05:58:13.493Z,647.2500
2023-05-03T05:59:18.117Z,710.8333
2023-05-03T06:00:22.753Z,878.5833
2023-05-03T06:01:27.372Z,1029.8334
2023-05-03T06:02:32.150Z,875.3333
2023-05-03T06:03:36.854Z,644.0000
2023-05-03T06:04:41.516Z,653.8333
2023-05-03T06:05:46.352Z,735.5000
2023-05-03T06:06:51.134Z,891.3333
2023-05-03T06:07:55.824Z,1013.7500
2023-05-03T06:09:02.913Z,913.3333
2023-05-03T06:10:05.817Z,638.3636
2023-05-03T06:11:10.577Z,638.1667
2023-05-03T06:12:15.234Z,696.1667
2023-05-03T06:13:19.902Z,842.8333
2023-05-03T06:14:24.532Z,991.2500
2023-05-03T06:15:29.493Z,972.3333
2023-05-03T06:16:34.236Z,658.1667
2023-05-03T06:17:38.930Z,625.5000
2023-05-03T06:18:43.554Z,674.4167
2023-05-03T06:19:48.181Z,810.6667
2023-05-03T06:20:52.830Z,958.0833
2023-05-03T06:21:57.484Z,988.2500
2023-05-03T06:23:02.155Z,691.4167
2023-05-03T06:24:06.773Z,630.0000
2023-05-03T06:25:11.441Z,675.4167
2023-05-03T06:26:16.070Z,798.1667
2023-05-03T06:27:20.723Z,955.4167
2023-05-03T06:28:25.382Z,1022.5833
2023-05-03T06:29:30.029Z,731.0000
2023-05-03T06:30:34.705Z,625.5000
2023-05-03T06:31:39.297Z,668.9167
2023-05-03T06:32:44.193Z,767.3333
2023-05-03T06:33:48.799Z,938.5000
2023-05-03T06:34:53.655Z,1021.1667
2023-05-03T06:35:58.309Z,784.2500
2023-05-03T06:37:02.960Z,649.7500
2023-05-03T06:38:07.589Z,691.0000
2023-05-03T06:39:12.221Z,808.6667
2023-05-03T06:40:17.101Z,970.0833
2023-05-03T06:41:21.733Z,1055.5000
2023-05-03T06:42:27.066Z,785.4167
2023-05-03T06:43:31.682Z,663.3333
2023-05-03T06:44:36.320Z,717.5833
2023-05-03T06:45:41.213Z,874.5000
2023-05-03T06:46:45.896Z,1012.1667
2023-05-03T06:47:50.581Z,1067.0834
2023-05-03T06:48:55.315Z,751.5000
2023-05-03T06:50:00.068Z,635.3333
2023-05-03T06:51:04.810Z,677.3333
2023-05-03T06:52:11.494Z,797.5000
2023-05-03T06:53:11.286Z,938.3636
2023-05-03T06:54:15.923Z,1031.5834
2023-05-03T06:55:20.562Z,781.3333
2023-05-03T06:56:25.197Z,652.8333
2023-05-03T06:57:30.066Z,695.3333
2023-05-03T06:58:34.697Z,839.0000
2023-05-03T06:59:39.340Z,976.0833
2023-05-03T07:00:44.070Z,1060.4166
2023-05-03T07:01:48.813Z,785.9167
2023-05-03T07:02:53.541Z,664.0833
2023-05-03T07:03:58.217Z,716.5833
2023-05-03T07:05:02.885Z,878.3333
2023-05-03T07:06:07.638Z,1016.9167
2023-05-03T07:07:12.406Z,1060.5000
2023-05-03T07:08:17.015Z,747.9167
2023-05-03T07:09:28.610Z,632.5000
2023-05-03T07:10:27.025Z,674.4545
2023-05-03T07:11:26.936Z,778.8182
2023-05-03T07:12:27.219Z,919.1818
2023-05-03T07:13:31.846Z,1028.3334
2023-05-03T07:14:36.507Z,820.3333
2023-05-03T07:15:41.164Z,655.1667
2023-05-03T07:16:45.881Z,695.0000
2023-05-03T07:17:50.541Z,824.2500
2023-05-03T07:18:55.152Z,971.3333
2023-05-03T07:19:59.789Z,1076.4166
2023-05-03T07:21:04.481Z,816.8333
2023-05-03T07:22:09.088Z,638.0000
2023-05-03T07:23:13.762Z,669.5000
2023-05-03T07:24:18.389Z,776.0000
2023-05-03T07:25:23.056Z,933.5833
2023-05-03T07:26:27.721Z,1043.2500
2023-05-03T07:27:32.340Z,821.1667
2023-05-03T07:28:36.970Z,639.5833
2023-05-03T07:29:41.620Z,663.5000
2023-05-03T07:30:46.590Z,750.5000
2023-05-03T07:31:53.427Z,922.3333
2023-05-03T07:32:52.925Z,1039.2727
2023-05-03T07:33:57.613Z,873.3333
2023-05-03T07:35:02.257Z,654.3333
2023-05-03T07:36:06.890Z,675.7500
2023-05-03T07:37:11.541Z,777.2500
2023-05-03T07:38:16.216Z,936.7500
2023-05-03T07:39:20.864Z,1029.5000
2023-05-03T07:40:25.577Z,864.2500
2023-05-03T07:41:30.222Z,650.5833
2023-05-03T07:42:35.116Z,676.6667
2023-05-03T07:43:39.760Z,785.0833
2023-05-03T07:44:44.382Z,948.0833
2023-05-03T07:45:49.040Z,1049.5834
2023-05-03T07:46:53.675Z,844.5000
2023-05-03T07:47:58.626Z,649.8333
2023-05-03T07:49:03.293Z,675.2500
2023-05-03T07:50:07.955Z,790.4167
2023-05-03T07:51:12.633Z,947.9167
2023-05-03T07:52:17.312Z,1044.4166
2023-05-03T07:53:21.954Z,854.1667
2023-05-03T07:54:26.615Z,618.9167
2023-05-03T07:55:31.249Z,622.2500
2023-05-03T07:56:35.877Z,678.5000
2023-05-03T07:57:40.537Z,810.5833
2023-05-03T07:58:48.573Z,966.3333
2023-05-03T07:59:50.447Z,902.0000
2023-05-03T08:00:55.099Z,672.0833
2023-05-03T08:02:01.708Z,692.5833
2023-05-03T08:03:01.391Z,829.0000
2023-05-03T08:04:06.381Z,957.1667
2023-05-03T08:05:11.454Z,1082.6666
2023-05-03T08:06:16.164Z,915.7500
2023-05-03T08:07:20.780Z,637.0833
2023-05-03T08:08:25.446Z,630.1667
2023-05-03T08:09:30.107Z,689.1667
2023-05-03T08:10:34.773Z,818.0000
2023-05-03T08:11:40.963Z,975.1667
2023-05-03T08:12:41.750Z,953.0000
2023-05-03T08:13:46.418Z,680.1667
2023-05-03T08:14:51.085Z,676.4167
2023-05-03T08:15:55.778Z,790.0833
2023-05-03T08:17:00.430Z,942.6667
2023-05-03T08:18:05.093Z,1049.4166
2023-05-03T08:19:09.736Z,936.5000
2023-05-03T08:20:14.400Z,664.4167
2023-05-03T08:21:19.007Z,672.5833
2023-05-03T08:22:23.671Z,766.5000
2023-05-03T08:23:28.330Z,935.1667
2023-05-03T08:24:32.966Z,1048.0000
2023-05-03T08:25:37.611Z,918.7500
2023-05-03T08:26:42.250Z,657.1667
2023-05-03T08:27:46.934Z,673.7500
2023-05-03T08:28:51.582Z,776.0000
2023-05-03T08:29:56.228Z,916.2500
2023-05-03T08:31:00.871Z,1066.5834
2023-05-03T08:32:05.492Z,910.5000
2023-05-03T08:33:10.207Z,646.0000
2023-05-03T08:34:14.917Z,655.0000
2023-05-03T08:35:15.177Z,724.5455
2023-05-03T08:36:19.849Z,884.5000
2023-05-03T08:37:24.513Z,1011.8333
2023-05-03T08:38:29.180Z,955.0000
2023-05-03T08:39:33.796Z,645.8333
2023-05-03T08:40:38.447Z,627.9167
2023-05-03T08:41:43.090Z,682.1667
2023-05-03T08:42:47.752Z,805.5833
2023-05-03T08:43:52.401Z,957.1667
2023-05-03T08:44:57.060Z,983.9167
2023-05-03T08:46:01.747Z,679.6667
2023-05-03T08:47:06.511Z,643.5833
2023-05-03T08:48:11.297Z,690.7500
2023-05-03T08:49:15.936Z,839.4167
2023-05-03T08:50:21.209Z,666.0000
2023-05-03T08:51:25.856Z,487.9167
2023-05-03T08:52:30.737Z,458.6667
2023-05-03T08:53:35.404Z,443.3333
2023-05-03T08:54:40.065Z,437.9167
2023-05-03T08:55:44.728Z,433.7500
2023-05-03T08:56:49.398Z,425.5833
2023-05-03T08:57:54.084Z,421.9167
2023-05-03T08:58:58.694Z,422.5833
2023-05-03T09:00:03.608Z,418.4167
2023-05-03T09:01:08.417Z,416.1667
2023-05-03T09:02:13.092Z,411.8333
2023-05-03T09:03:17.793Z,411.0000
2023-05-03T09:04:22.494Z,410.1667
2023-05-03T09:05:27.114Z,414.0000
2023-05-03T09:06:31.788Z,412.3333
2023-05-03T09:07:36.392Z,414.8333
2023-05-03T09:08:41.030Z,415.6667
2023-05-03T09:10:01.759Z,411.4167
2023-05-03T09:10:50.832Z,406.9091
2023-05-03T09:11:55.469Z,403.9167
2023-05-03T09:13:00.134Z,407.9167
2023-05-03T09:14:04.785Z,406.1667
2023-05-03T09:15:09.457Z,404.7500
2023-05-03T09:16:14.138Z,401.0000
2023-05-03T09:17:19.120Z,399.0000
2023-05-03T09:18:23.773Z,400.6667
2023-05-03T09:19:28.444Z,404.2500
2023-05-03T09:20:33.112Z,402.6667
2023-05-03T09:21:37.746Z,410.5833
2023-05-03T09:22:42.401Z,411.1667
2023-05-03T09:23:47.032Z,375.0000
2023-05-03T09:24:51.678Z,268.1667
2023-05-03T09:25:56.318Z,193.0000
2023-05-03T09:27:00.945Z,225.2500
2023-05-03T09:28:05.582Z,335.0833
2023-05-03T09:29:10.219Z,435.7500
2023-05-03T09:30:14.861Z,512.6667
2023-05-03T09:31:19.517Z,563.3333
2023-05-03T09:32:24.259Z,512.6667
2023-05-03T09:33:28.886Z,491.7500
2023-05-03T09:34:33.542Z,537.8333
2023-05-03T09:35:38.269Z,592.5000
2023-05-03T09:36:44.482Z,638.0833
2023-05-03T09:37:43.774Z,657.3636
2023-05-03T09:38:48.428Z,564.2500
2023-05-03T09:39:53.086Z,459.4167
2023-05-03T09:40:57.746Z,442.5000
2023-05-03T09:42:02.417Z,439.6667
2023-05-03T09:43:07.062Z,437.8333
2023-05-03T09:44:11.714Z,441.3333
2023-05-03T09:45:16.370Z,431.1667
2023-05-03T09:46:21.092Z,425.7500
2023-05-03T09:47:25.840Z,418.2500
2023-05-03T09:48:30.568Z,416.9167
2023-05-03T09:49:35.244Z,417.0833
2023-05-03T09:50:39.927Z,416.4167
2023-05-03T09:51:44.839Z,414.2500
2023-05-03T09:52:49.493Z,411.5000
2023-05-03T09:53:54.149Z,409.0833
2023-05-03T09:54:58.825Z,327.5000
2023-05-03T09:56:03.458Z,221.9167
2023-05-03T09:57:08.101Z,186.2500
2023-05-03T09:58:12.732Z,272.5833
2023-05-03T09:59:17.382Z,379.5833
2023-05-03T10:00:22.153Z,463.6667
2023-05-03T10:01:26.781Z,529.4167
2023-05-03T10:02:31.418Z,565.3333
2023-05-03T10:03:36.042Z,599.5833
2023-05-03T10:04:40.676Z,631.1667
2023-05-03T10:05:45.352Z,667.0000
2023-05-03T10:06:45.655Z,700.5455
2023-05-03T10:07:50.264Z,686.5000
2023-05-03T10:08:54.991Z,553.8333
2023-05-03T10:09:59.853Z,458.7500
2023-05-03T10:11:04.502Z,448.0833
2023-05-03T10:12:09.106Z,448.0833
2023-05-03T10:13:13.766Z,450.6667
2023-05-03T10:14:18.408Z,450.7500
2023-05-03T10:15:23.061Z,455.2500
2023-05-03T10:16:27.741Z,446.9167
2023-05-03T10:17:47.172Z,438.4167
2023-05-03T10:18:37.893Z,436.2727
2023-05-03T10:19:42.567Z,439.8333
2023-05-03T10:20:47.205Z,436.5833
2023-05-03T10:21:51.846Z,437.0000
2023-05-03T10:22:56.488Z,437.4167
2023-05-03T10:24:01.110Z,443.7500
2023-05-03T10:25:05.942Z,417.5000
2023-05-03T10:26:10.795Z,405.9167
2023-05-03T10:27:15.450Z,320.2500
2023-05-03T10:28:20.110Z,245.7500
2023-05-03T10:29:24.789Z,299.6667
2023-05-03T10:30:29.478Z,399.6667
2023-05-03T10:31:34.173Z,488.6667
2023-05-03T10:32:38.774Z,556.0833
2023-05-03T10:33:43.455Z,580.9167
2023-05-03T10:34:48.083Z,538.6667
2023-05-03T10:35:52.776Z,563.4167
2023-05-03T10:36:57.420Z,611.2500
2023-05-03T10:38:02.034Z,648.4167
2023-05-03T10:39:06.657Z,679.5833
2023-05-03T10:40:11.334Z,630.1667
2023-05-03T10:41:15.960Z,528.2500
2023-05-03T10:42:20.601Z,500.8333
2023-05-03T10:43:25.232Z,498.7500
2023-05-03T10:44:29.877Z,501.9167
2023-05-03T10:45:34.527Z,499.4167
2023-05-03T10:46:39.239Z,496.3333
2023-05-03T10:47:43.913Z,498.9167
2023-05-03T10:48:48.550Z,496.5000
2023-05-03T10:49:53.180Z,494.1667
2023-05-03T10:50:57.878Z,492.9167
2023-05-03T10:52:02.522Z,487.5000
2023-05-03T10:53:07.180Z,485.8333
2023-05-03T10:54:11.826Z,480.6667
2023-05-03T10:55:16.488Z,477.8333
2023-05-03T10:56:21.189Z,423.9167
2023-05-03T10:57:25.822Z,315.5833
2023-05-03T10:58:30.439Z,262.8333
2023-05-03T10:59:35.078Z,328.3333
2023-05-03T11:00:39.711Z,432.4167
2023-05-03T11:01:44.457Z,521.3333
2023-05-03T11:02:49.123Z,587.5000
2023-05-03T11:03:53.762Z,611.5000
2023-05-03T11:04:58.494Z,568.6667
2023-05-03T11:06:03.197Z,593.3333
2023-05-03T11:07:07.910Z,641.1667
2023-05-03T11:08:12.576Z,676.1667
2023-05-03T11:09:17.223Z,746.7500
2023-05-03T11:10:21.859Z,662.2500
2023-05-03T11:11:26.491Z,541.9167
2023-05-03T11:12:31.131Z,488.5000
2023-05-03T11:13:35.839Z,480.3333
2023-05-03T11:14:40.538Z,476.5833
2023-05-03T11:15:46.953Z,474.5000
2023-05-03T11:16:48.309Z,473.7273
2023-05-03T11:17:47.791Z,463.8182
2023-05-03T11:18:52.440Z,462.3333
2023-05-03T11:19:57.102Z,457.5000
2023-05-03T11:21:01.772Z,457.4167
2023-05-03T11:22:06.554Z,460.1667
2023-05-03T11:23:11.186Z,472.5000
2023-05-03T11:24:15.858Z,464.5000
2023-05-03T11:25:20.492Z,458.7500
2023-05-03T11:26:25.144Z,462.8333
2023-05-03T11:27:29.787Z,458.3333
2023-05-03T11:28:34.536Z,365.5833
2023-05-03T11:29:39.180Z,272.7500
2023-05-03T11:30:43.840Z,243.3333
2023-05-03T11:31:48.523Z,333.6667
2023-05-03T11:32:53.185Z,437.0833
2023-05-03T11:33:57.840Z,520.5833
2023-05-03T11:35:02.728Z,585.8333
2023-05-03T11:36:07.555Z,586.0833
2023-05-03T11:37:12.228Z,557.0833
2023-05-03T11:38:16.845Z,592.8333
2023-05-03T11:39:21.500Z,637.7500
2023-05-03T11:40:26.126Z,675.8333
2023-05-03T11:41:30.764Z,714.0833
2023-05-03T11:42:35.448Z,626.0833
2023-05-03T11:43:40.083Z,536.2500
2023-05-03T11:44:44.716Z,556.5833
2023-05-03T11:45:49.395Z,613.2500
2023-05-03T11:46:54.145Z,657.0833
2023-05-03T11:47:58.868Z,699.0833
2023-05-03T11:49:03.575Z,661.3333
2023-05-03T11:50:08.253Z,579.4167
2023-05-03T11:51:12.935Z,601.7500
2023-05-03T11:52:17.572Z,622.5833
2023-05-03T11:53:22.280Z,521.0000
2023-05-03T11:54:27.842Z,483.6667
2023-05-03T11:55:27.333Z,466.9091
2023-05-03T11:56:32.008Z,461.6667
2023-05-03T11:57:36.720Z,462.4167
2023-05-03T11:58:41.415Z,460.1667
2023-05-03T11:59:46.115Z,458.9167
2023-05-03T12:00:50.767Z,458.1667
2023-05-03T12:01:55.433Z,456.4167
2023-05-03T12:03:00.204Z,456.2500
2023-05-03T12:04:05.436Z,454.7500
2023-05-03T12:05:05.960Z,455.0000
2023-05-03T12:06:06.487Z,457.0909
2023-05-03T12:07:06.275Z,460.3636
2023-05-03T12:08:12.079Z,468.0000
2023-05-03T12:09:12.648Z,468.4546
2023-05-03T12:10:21.878Z,466.8333
2023-05-03T12:11:25.684Z,467.2727
2023-05-03T12:12:30.877Z,466.0909
2023-05-03T12:13:33.715Z,461.6364
2023-05-03T12:14:34.050Z,458.7273
2023-05-03T12:15:40.614Z,459.3333
2023-05-03T12:16:40.271Z,458.0909
2023-05-03T12:17:46.026Z,456.5000
2023-05-03T12:18:48.322Z,458.8182
2023-05-03T12:19:54.442Z,454.0000
2023-05-03T12:21:30.018Z,456.0000
2023-05-03T12:23:04.831Z,452.8182
2023-05-03T12:24:10.784Z,454.3333
2023-05-03T12:25:10.629Z,448.0000
2023-05-03T12:26:10.594Z,447.3636
2023-05-03T12:27:16.586Z,450.1667
2023-05-03T12:28:20.893Z,445.9091
2023-05-03T12:29:23.039Z,448.0909
2023-05-03T12:31:29.157Z,449.9167
2023-05-03T12:32:28.840Z,396.2727
2023-05-03T12:33:33.858Z,300.3333
2023-05-03T12:34:41.072Z,237.0833
2023-05-03T12:35:41.383Z,270.1818
2023-05-03T12:36:43.389Z,375.2727
2023-05-03T12:37:43.873Z,466.8182